ICAO code: LHPR | IATA code: QGY | AFTN: LHPRZPZX | english | deutsch
Időjárás: 2018-02-20 19:20 (UTC) | Hőmérséklet: -0.1 °C | QNH: 1014.2 hPa | Szél: 2 m/s | Részletek
Live ATC LHPR
Webkameránk élőképe

Győr-Pér Repülőtér időjárás adatok

Metar:
METAR LHPR 201915Z AUTO 03004KT 3900 -SN BR NCD 00/M00 Q1014 RMK GR


Taf:
TAF LHPR 201715Z 2018/2103 04007KT 5000 -SN SCT010 OVC020
TEMPO 2018/2103 1500 SN BKN004 OVC010


Jelenidő:
Hó, gyenge
Időbélyeg: 2018-02-20 19:20:00 UTC
Hőmérséklet:
-0.1 °C
 
Harmatpont:
-0.1 °C
 
Rel. páratartalom:
100%
 
QNH:
1014.2 hPa
 
Szélsebesség:
2.0 m/s
Max:
2.1 m/s
Szélirány:
30°
 
Csapadék (1 óra):
0.1 mm
 
Látótávolság:
2223 m
 
RVR:
>1500 m RWY30
 
1. felhőréteg mennyisége:
0 octa
 
1. felhőréteg alapja:
m


Az adatokat szolgáltatja
az Országos Meteorológiai Szolgálat
Győr-Pér Repülőtér | H 9099 Pér, Repülőtér | Tel: +36/96/559-200 | Fax: +36/96/559-202

ICAO code: LHPR | IATA code: QGY | AFTN: LHPRZPZX


weboldal tervezés: IRQ